sensor_id;sensor_type;location;lat;lon;timestamp;P1;durP1;ratioP1;P2;durP2;ratioP2
39728;SDS011;25402;42.004;23.088;2024-03-02T00:00:50;50.28;;;23.05;;
39728;SDS011;25402;42.004;23.088;2024-03-02T00:03:18;44.25;;;22.60;;
39728;SDS011;25402;42.004;23.088;2024-03-02T00:05:48;46.63;;;22.75;;
39728;SDS011;25402;42.004;23.088;2024-03-02T00:08:20;48.10;;;22.70;;
39728;SDS011;25402;42.004;23.088;2024-03-02T00:10:53;45.75;;;22.50;;
39728;SDS011;25402;42.004;23.088;2024-03-02T00:15:51;39.25;;;20.48;;
39728;SDS011;25402;42.004;23.088;2024-03-02T00:18:21;35.22;;;17.85;;
39728;SDS011;25402;42.004;23.088;2024-03-02T00:20:52;39.35;;;17.55;;
39728;SDS011;25402;42.004;23.088;2024-03-02T00:23:21;38.85;;;18.75;;
39728;SDS011;25402;42.004;23.088;2024-03-02T00:25:48;34.58;;;17.95;;
39728;SDS011;25402;42.004;23.088;2024-03-02T00:28:21;38.53;;;20.42;;
39728;SDS011;25402;42.004;23.088;2024-03-02T00:30:51;35.10;;;18.92;;
39728;SDS011;25402;42.004;23.088;2024-03-02T00:33:23;35.63;;;18.73;;
39728;SDS011;25402;42.004;23.088;2024-03-02T00:35:52;39.25;;;19.38;;
39728;SDS011;25402;42.004;23.088;2024-03-02T00:38:20;33.03;;;18.58;;
39728;SDS011;25402;42.004;23.088;2024-03-02T00:40:47;33.65;;;17.75;;
39728;SDS011;25402;42.004;23.088;2024-03-02T00:43:34;37.42;;;18.75;;
39728;SDS011;25402;42.004;23.088;2024-03-02T00:46:07;34.95;;;18.27;;
39728;SDS011;25402;42.004;23.088;2024-03-02T00:48:35;30.90;;;17.40;;
39728;SDS011;25402;42.004;23.088;2024-03-02T00:51:03;34.22;;;18.02;;
39728;SDS011;25402;42.004;23.088;2024-03-02T00:53:30;32.35;;;17.73;;
39728;SDS011;25402;42.004;23.088;2024-03-02T00:55:59;33.50;;;18.30;;
39728;SDS011;25402;42.004;23.088;2024-03-02T00:58:27;30.15;;;16.83;;
39728;SDS011;25402;42.004;23.088;2024-03-02T01:00:56;35.35;;;18.77;;
39728;SDS011;25402;42.004;23.088;2024-03-02T01:03:23;32.58;;;18.48;;
39728;SDS011;25402;42.004;23.088;2024-03-02T01:05:50;38.17;;;18.55;;
39728;SDS011;25402;42.004;23.088;2024-03-02T01:08:17;35.70;;;18.45;;
39728;SDS011;25402;42.004;23.088;2024-03-02T01:10:44;35.08;;;18.92;;
39728;SDS011;25402;42.004;23.088;2024-03-02T01:13:12;36.65;;;18.67;;
39728;SDS011;25402;42.004;23.088;2024-03-02T01:15:39;38.47;;;18.95;;
39728;SDS011;25402;42.004;23.088;2024-03-02T01:18:08;39.45;;;19.77;;
39728;SDS011;25402;42.004;23.088;2024-03-02T01:20:35;34.83;;;19.42;;
39728;SDS011;25402;42.004;23.088;2024-03-02T01:23:02;36.42;;;19.85;;
39728;SDS011;25402;42.004;23.088;2024-03-02T01:25:32;35.05;;;18.80;;
39728;SDS011;25402;42.004;23.088;2024-03-02T01:27:59;32.75;;;17.67;;
39728;SDS011;25402;42.004;23.088;2024-03-02T01:30:26;34.30;;;18.38;;
39728;SDS011;25402;42.004;23.088;2024-03-02T01:32:53;37.30;;;19.38;;
39728;SDS011;25402;42.004;23.088;2024-03-02T01:35:21;33.33;;;18.42;;
39728;SDS011;25402;42.004;23.088;2024-03-02T01:37:49;36.33;;;19.23;;
39728;SDS011;25402;42.004;23.088;2024-03-02T01:40:16;35.85;;;18.77;;
39728;SDS011;25402;42.004;23.088;2024-03-02T01:42:43;38.33;;;19.45;;
39728;SDS011;25402;42.004;23.088;2024-03-02T01:45:10;38.20;;;19.48;;
39728;SDS011;25402;42.004;23.088;2024-03-02T01:47:37;35.22;;;19.42;;
39728;SDS011;25402;42.004;23.088;2024-03-02T01:50:04;34.58;;;19.70;;
39728;SDS011;25402;42.004;23.088;2024-03-02T01:52:35;41.33;;;21.25;;
39728;SDS011;25402;42.004;23.088;2024-03-02T01:55:02;48.58;;;23.38;;
39728;SDS011;25402;42.004;23.088;2024-03-02T01:57:30;50.47;;;23.38;;
39728;SDS011;25402;42.004;23.088;2024-03-02T01:59:57;47.00;;;23.08;;
39728;SDS011;25402;42.004;23.088;2024-03-02T02:02:24;43.25;;;21.77;;
39728;SDS011;25402;42.004;23.088;2024-03-02T02:04:51;45.58;;;22.45;;
39728;SDS011;25402;42.004;23.088;2024-03-02T02:07:19;50.38;;;24.05;;
39728;SDS011;25402;42.004;23.088;2024-03-02T02:09:47;53.15;;;25.13;;
39728;SDS011;25402;42.004;23.088;2024-03-02T02:12:14;52.47;;;24.30;;
39728;SDS011;25402;42.004;23.088;2024-03-02T02:14:46;50.00;;;25.02;;
39728;SDS011;25402;42.004;23.088;2024-03-02T02:17:15;45.70;;;22.48;;
39728;SDS011;25402;42.004;23.088;2024-03-02T02:19:42;49.47;;;22.90;;
39728;SDS011;25402;42.004;23.088;2024-03-02T02:22:11;46.40;;;23.10;;
39728;SDS011;25402;42.004;23.088;2024-03-02T02:24:39;37.70;;;20.30;;
39728;SDS011;25402;42.004;23.088;2024-03-02T02:27:07;37.55;;;21.00;;
39728;SDS011;25402;42.004;23.088;2024-03-02T02:29:35;37.80;;;20.55;;
39728;SDS011;25402;42.004;23.088;2024-03-02T02:32:02;37.83;;;20.17;;
39728;SDS011;25402;42.004;23.088;2024-03-02T02:34:29;40.58;;;20.95;;
39728;SDS011;25402;42.004;23.088;2024-03-02T02:36:56;34.95;;;19.27;;
39728;SDS011;25402;42.004;23.088;2024-03-02T02:39:25;35.17;;;20.02;;
39728;SDS011;25402;42.004;23.088;2024-03-02T02:41:52;35.60;;;18.52;;
39728;SDS011;25402;42.004;23.088;2024-03-02T02:44:19;37.88;;;19.77;;
39728;SDS011;25402;42.004;23.088;2024-03-02T02:46:46;40.33;;;19.35;;
39728;SDS011;25402;42.004;23.088;2024-03-02T02:49:13;34.65;;;19.30;;
39728;SDS011;25402;42.004;23.088;2024-03-02T02:51:40;35.42;;;19.35;;
39728;SDS011;25402;42.004;23.088;2024-03-02T02:54:07;37.25;;;20.30;;
39728;SDS011;25402;42.004;23.088;2024-03-02T02:56:35;34.17;;;18.85;;
39728;SDS011;25402;42.004;23.088;2024-03-02T02:59:03;36.95;;;19.38;;
39728;SDS011;25402;42.004;23.088;2024-03-02T03:01:30;37.40;;;19.35;;
39728;SDS011;25402;42.004;23.088;2024-03-02T03:03:57;35.65;;;18.75;;
39728;SDS011;25402;42.004;23.088;2024-03-02T03:06:24;33.75;;;18.55;;
39728;SDS011;25402;42.004;23.088;2024-03-02T03:08:51;35.40;;;20.00;;
39728;SDS011;25402;42.004;23.088;2024-03-02T03:11:18;36.40;;;19.73;;
39728;SDS011;25402;42.004;23.088;2024-03-02T03:13:46;36.30;;;19.08;;
39728;SDS011;25402;42.004;23.088;2024-03-02T03:16:14;37.10;;;19.40;;
39728;SDS011;25402;42.004;23.088;2024-03-02T03:18:41;33.80;;;18.83;;
39728;SDS011;25402;42.004;23.088;2024-03-02T03:21:08;34.15;;;19.23;;
39728;SDS011;25402;42.004;23.088;2024-03-02T03:23:35;37.45;;;18.65;;
39728;SDS011;25402;42.004;23.088;2024-03-02T03:26:02;40.00;;;19.55;;
39728;SDS011;25402;42.004;23.088;2024-03-02T03:28:29;37.28;;;19.20;;
39728;SDS011;25402;42.004;23.088;2024-03-02T03:30:58;37.65;;;18.63;;
39728;SDS011;25402;42.004;23.088;2024-03-02T03:33:25;37.85;;;19.23;;
39728;SDS011;25402;42.004;23.088;2024-03-02T03:35:52;40.38;;;19.23;;
39728;SDS011;25402;42.004;23.088;2024-03-02T03:38:20;36.55;;;19.33;;
39728;SDS011;25402;42.004;23.088;2024-03-02T03:40:47;40.10;;;19.45;;
39728;SDS011;25402;42.004;23.088;2024-03-02T03:43:14;38.88;;;20.67;;
39728;SDS011;25402;42.004;23.088;2024-03-02T03:45:41;38.67;;;20.73;;
39728;SDS011;25402;42.004;23.088;2024-03-02T03:48:10;38.97;;;20.30;;
39728;SDS011;25402;42.004;23.088;2024-03-02T03:50:37;43.33;;;21.63;;
39728;SDS011;25402;42.004;23.088;2024-03-02T03:53:04;40.70;;;20.73;;
39728;SDS011;25402;42.004;23.088;2024-03-02T03:55:31;45.38;;;22.13;;
39728;SDS011;25402;42.004;23.088;2024-03-02T03:57:58;43.08;;;21.02;;
39728;SDS011;25402;42.004;23.088;2024-03-02T04:00:26;42.47;;;22.13;;
39728;SDS011;25402;42.004;23.088;2024-03-02T04:02:53;40.20;;;21.33;;
39728;SDS011;25402;42.004;23.088;2024-03-02T04:05:21;45.75;;;21.25;;
39728;SDS011;25402;42.004;23.088;2024-03-02T04:07:48;45.20;;;21.20;;
39728;SDS011;25402;42.004;23.088;2024-03-02T04:10:15;41.58;;;21.15;;
39728;SDS011;25402;42.004;23.088;2024-03-02T04:12:43;39.63;;;20.90;;
39728;SDS011;25402;42.004;23.088;2024-03-02T04:15:10;39.40;;;21.30;;
39728;SDS011;25402;42.004;23.088;2024-03-02T04:17:37;40.80;;;21.45;;
39728;SDS011;25402;42.004;23.088;2024-03-02T04:20:04;42.15;;;22.52;;
39728;SDS011;25402;42.004;23.088;2024-03-02T04:22:34;40.42;;;20.95;;
39728;SDS011;25402;42.004;23.088;2024-03-02T04:25:01;39.28;;;20.73;;
39728;SDS011;25402;42.004;23.088;2024-03-02T04:27:30;38.63;;;20.13;;
39728;SDS011;25402;42.004;23.088;2024-03-02T04:29:58;39.05;;;20.58;;
39728;SDS011;25402;42.004;23.088;2024-03-02T04:32:26;38.60;;;19.23;;
39728;SDS011;25402;42.004;23.088;2024-03-02T04:34:53;37.75;;;20.00;;
39728;SDS011;25402;42.004;23.088;2024-03-02T04:37:20;38.38;;;19.92;;
39728;SDS011;25402;42.004;23.088;2024-03-02T04:39:49;38.75;;;20.98;;
39728;SDS011;25402;42.004;23.088;2024-03-02T04:42:16;36.85;;;19.63;;
39728;SDS011;25402;42.004;23.088;2024-03-02T04:44:43;37.72;;;18.73;;
39728;SDS011;25402;42.004;23.088;2024-03-02T04:47:10;36.22;;;18.48;;
39728;SDS011;25402;42.004;23.088;2024-03-02T04:49:37;34.85;;;17.77;;
39728;SDS011;25402;42.004;23.088;2024-03-02T04:52:04;32.78;;;18.00;;
39728;SDS011;25402;42.004;23.088;2024-03-02T04:54:32;35.83;;;18.52;;
39728;SDS011;25402;42.004;23.088;2024-03-02T04:57:20;33.33;;;18.98;;
39728;SDS011;25402;42.004;23.088;2024-03-02T04:59:47;33.95;;;18.13;;
39728;SDS011;25402;42.004;23.088;2024-03-02T05:02:14;31.20;;;18.70;;
39728;SDS011;25402;42.004;23.088;2024-03-02T05:04:41;35.22;;;18.20;;
39728;SDS011;25402;42.004;23.088;2024-03-02T05:07:08;35.63;;;18.55;;
39728;SDS011;25402;42.004;23.088;2024-03-02T05:09:35;28.52;;;16.50;;
39728;SDS011;25402;42.004;23.088;2024-03-02T05:12:02;32.83;;;17.10;;
39728;SDS011;25402;42.004;23.088;2024-03-02T05:14:49;31.30;;;17.65;;
39728;SDS011;25402;42.004;23.088;2024-03-02T05:17:15;30.90;;;17.05;;
39728;SDS011;25402;42.004;23.088;2024-03-02T05:19:43;36.05;;;17.75;;
39728;SDS011;25402;42.004;23.088;2024-03-02T05:22:10;32.28;;;17.33;;
39728;SDS011;25402;42.004;23.088;2024-03-02T05:24:37;35.55;;;18.88;;
39728;SDS011;25402;42.004;23.088;2024-03-02T05:27:04;34.15;;;18.30;;
39728;SDS011;25402;42.004;23.088;2024-03-02T05:29:32;35.55;;;19.08;;
39728;SDS011;25402;42.004;23.088;2024-03-02T05:32:01;36.45;;;19.67;;
39728;SDS011;25402;42.004;23.088;2024-03-02T05:34:28;37.92;;;19.77;;
39728;SDS011;25402;42.004;23.088;2024-03-02T05:36:55;35.13;;;20.02;;
39728;SDS011;25402;42.004;23.088;2024-03-02T05:39:24;35.72;;;19.17;;
39728;SDS011;25402;42.004;23.088;2024-03-02T05:41:51;35.78;;;19.45;;
39728;SDS011;25402;42.004;23.088;2024-03-02T05:44:18;33.35;;;19.60;;
39728;SDS011;25402;42.004;23.088;2024-03-02T05:46:45;34.45;;;19.17;;
39728;SDS011;25402;42.004;23.088;2024-03-02T05:49:14;36.97;;;19.67;;
39728;SDS011;25402;42.004;23.088;2024-03-02T05:51:41;32.47;;;19.73;;
39728;SDS011;25402;42.004;23.088;2024-03-02T05:54:08;35.53;;;19.42;;
39728;SDS011;25402;42.004;23.088;2024-03-02T05:56:35;40.47;;;19.83;;
39728;SDS011;25402;42.004;23.088;2024-03-02T05:59:02;36.78;;;19.05;;
39728;SDS011;25402;42.004;23.088;2024-03-02T06:01:37;33.22;;;18.35;;
39728;SDS011;25402;42.004;23.088;2024-03-02T06:04:05;36.13;;;18.80;;
39728;SDS011;25402;42.004;23.088;2024-03-02T06:06:33;36.00;;;18.85;;
39728;SDS011;25402;42.004;23.088;2024-03-02T06:09:01;37.25;;;18.35;;
39728;SDS011;25402;42.004;23.088;2024-03-02T06:11:30;35.20;;;18.45;;
39728;SDS011;25402;42.004;23.088;2024-03-02T06:13:57;35.63;;;18.65;;
39728;SDS011;25402;42.004;23.088;2024-03-02T06:16:24;35.35;;;19.58;;
39728;SDS011;25402;42.004;23.088;2024-03-02T06:18:52;38.55;;;20.52;;
39728;SDS011;25402;42.004;23.088;2024-03-02T06:21:19;35.80;;;19.27;;
39728;SDS011;25402;42.004;23.088;2024-03-02T06:23:48;41.75;;;20.27;;
39728;SDS011;25402;42.004;23.088;2024-03-02T06:26:15;40.83;;;21.27;;
39728;SDS011;25402;42.004;23.088;2024-03-02T06:28:42;36.30;;;20.60;;
39728;SDS011;25402;42.004;23.088;2024-03-02T06:31:09;38.92;;;21.38;;
39728;SDS011;25402;42.004;23.088;2024-03-02T06:33:36;43.88;;;21.50;;
39728;SDS011;25402;42.004;23.088;2024-03-02T06:36:06;45.72;;;20.75;;
39728;SDS011;25402;42.004;23.088;2024-03-02T06:38:34;39.97;;;20.83;;
39728;SDS011;25402;42.004;23.088;2024-03-02T06:41:03;40.78;;;21.13;;
39728;SDS011;25402;42.004;23.088;2024-03-02T06:43:30;38.15;;;20.73;;
39728;SDS011;25402;42.004;23.088;2024-03-02T06:45:57;40.45;;;20.75;;
39728;SDS011;25402;42.004;23.088;2024-03-02T06:48:24;41.97;;;20.95;;
39728;SDS011;25402;42.004;23.088;2024-03-02T06:50:51;33.75;;;19.40;;
39728;SDS011;25402;42.004;23.088;2024-03-02T06:53:18;40.30;;;21.38;;
39728;SDS011;25402;42.004;23.088;2024-03-02T06:55:46;37.38;;;21.15;;
39728;SDS011;25402;42.004;23.088;2024-03-02T06:58:15;39.95;;;21.23;;
39728;SDS011;25402;42.004;23.088;2024-03-02T07:00:42;39.35;;;20.80;;
39728;SDS011;25402;42.004;23.088;2024-03-02T07:03:09;40.47;;;21.55;;
39728;SDS011;25402;42.004;23.088;2024-03-02T07:05:37;35.05;;;19.23;;
39728;SDS011;25402;42.004;23.088;2024-03-02T07:08:04;34.58;;;19.40;;
39728;SDS011;25402;42.004;23.088;2024-03-02T07:10:32;38.08;;;19.83;;
39728;SDS011;25402;42.004;23.088;2024-03-02T07:12:59;41.38;;;19.40;;
39728;SDS011;25402;42.004;23.088;2024-03-02T07:15:27;36.58;;;18.95;;
39728;SDS011;25402;42.004;23.088;2024-03-02T07:18:15;36.55;;;19.67;;
39728;SDS011;25402;42.004;23.088;2024-03-02T07:20:42;34.08;;;18.52;;
39728;SDS011;25402;42.004;23.088;2024-03-02T07:23:09;36.42;;;20.35;;
39728;SDS011;25402;42.004;23.088;2024-03-02T07:25:36;41.97;;;21.83;;
39728;SDS011;25402;42.004;23.088;2024-03-02T07:28:04;38.17;;;21.60;;
39728;SDS011;25402;42.004;23.088;2024-03-02T07:30:33;34.40;;;19.63;;
39728;SDS011;25402;42.004;23.088;2024-03-02T07:33:01;39.40;;;21.58;;
39728;SDS011;25402;42.004;23.088;2024-03-02T07:35:28;31.27;;;18.65;;
39728;SDS011;25402;42.004;23.088;2024-03-02T07:37:56;31.02;;;18.48;;
39728;SDS011;25402;42.004;23.088;2024-03-02T07:40:24;34.55;;;19.02;;
39728;SDS011;25402;42.004;23.088;2024-03-02T07:42:51;32.03;;;17.90;;
39728;SDS011;25402;42.004;23.088;2024-03-02T07:45:18;30.60;;;17.65;;
39728;SDS011;25402;42.004;23.088;2024-03-02T07:47:47;32.97;;;17.95;;
39728;SDS011;25402;42.004;23.088;2024-03-02T07:50:15;33.55;;;18.92;;
39728;SDS011;25402;42.004;23.088;2024-03-02T07:52:42;32.03;;;18.27;;
39728;SDS011;25402;42.004;23.088;2024-03-02T07:55:09;29.25;;;17.45;;
39728;SDS011;25402;42.004;23.088;2024-03-02T07:57:36;29.00;;;16.38;;
39728;SDS011;25402;42.004;23.088;2024-03-02T08:00:04;27.38;;;16.00;;
39728;SDS011;25402;42.004;23.088;2024-03-02T08:02:32;31.90;;;16.88;;
39728;SDS011;25402;42.004;23.088;2024-03-02T08:05:01;30.10;;;16.38;;
39728;SDS011;25402;42.004;23.088;2024-03-02T08:07:28;30.48;;;16.77;;
39728;SDS011;25402;42.004;23.088;2024-03-02T08:09:55;27.23;;;15.95;;
39728;SDS011;25402;42.004;23.088;2024-03-02T08:12:22;28.10;;;16.50;;
39728;SDS011;25402;42.004;23.088;2024-03-02T08:14:49;23.35;;;14.35;;
39728;SDS011;25402;42.004;23.088;2024-03-02T08:17:16;29.55;;;15.90;;
39728;SDS011;25402;42.004;23.088;2024-03-02T08:19:43;27.58;;;16.52;;
39728;SDS011;25402;42.004;23.088;2024-03-02T08:22:14;24.92;;;15.00;;
39728;SDS011;25402;42.004;23.088;2024-03-02T08:24:42;26.05;;;15.85;;
39728;SDS011;25402;42.004;23.088;2024-03-02T08:27:09;23.02;;;13.55;;
39728;SDS011;25402;42.004;23.088;2024-03-02T08:29:36;23.48;;;14.13;;
39728;SDS011;25402;42.004;23.088;2024-03-02T08:32:04;24.60;;;14.45;;
39728;SDS011;25402;42.004;23.088;2024-03-02T08:34:32;23.55;;;14.35;;
39728;SDS011;25402;42.004;23.088;2024-03-02T08:37:00;24.70;;;14.75;;
39728;SDS011;25402;42.004;23.088;2024-03-02T08:39:30;24.67;;;14.40;;
39728;SDS011;25402;42.004;23.088;2024-03-02T08:41:57;24.10;;;13.80;;
39728;SDS011;25402;42.004;23.088;2024-03-02T08:44:24;21.08;;;12.75;;
39728;SDS011;25402;42.004;23.088;2024-03-02T08:46:52;23.33;;;12.88;;
39728;SDS011;25402;42.004;23.088;2024-03-02T08:49:19;23.95;;;13.93;;
39728;SDS011;25402;42.004;23.088;2024-03-02T08:51:46;38.42;;;14.20;;
39728;SDS011;25402;42.004;23.088;2024-03-02T08:54:19;22.52;;;13.07;;
39728;SDS011;25402;42.004;23.088;2024-03-02T08:56:48;23.27;;;13.55;;
39728;SDS011;25402;42.004;23.088;2024-03-02T08:59:15;22.55;;;13.82;;
39728;SDS011;25402;42.004;23.088;2024-03-02T09:01:42;21.67;;;12.52;;
39728;SDS011;25402;42.004;23.088;2024-03-02T09:04:10;23.40;;;14.38;;
39728;SDS011;25402;42.004;23.088;2024-03-02T09:06:39;22.48;;;13.90;;
39728;SDS011;25402;42.004;23.088;2024-03-02T09:09:06;23.67;;;13.80;;
39728;SDS011;25402;42.004;23.088;2024-03-02T09:11:33;22.73;;;13.40;;
39728;SDS011;25402;42.004;23.088;2024-03-02T09:14:01;22.35;;;13.13;;
39728;SDS011;25402;42.004;23.088;2024-03-02T09:16:30;19.02;;;12.00;;
39728;SDS011;25402;42.004;23.088;2024-03-02T09:18:57;22.83;;;12.65;;
39728;SDS011;25402;42.004;23.088;2024-03-02T09:21:25;22.40;;;12.65;;
39728;SDS011;25402;42.004;23.088;2024-03-02T09:23:52;20.92;;;11.77;;
39728;SDS011;25402;42.004;23.088;2024-03-02T09:26:19;21.73;;;12.35;;
39728;SDS011;25402;42.004;23.088;2024-03-02T09:28:47;19.67;;;11.35;;
39728;SDS011;25402;42.004;23.088;2024-03-02T09:31:16;19.70;;;11.93;;
39728;SDS011;25402;42.004;23.088;2024-03-02T09:33:43;21.25;;;11.95;;
39728;SDS011;25402;42.004;23.088;2024-03-02T09:36:16;19.83;;;11.63;;
39728;SDS011;25402;42.004;23.088;2024-03-02T09:38:44;19.58;;;11.98;;
39728;SDS011;25402;42.004;23.088;2024-03-02T09:41:11;18.35;;;11.52;;
39728;SDS011;25402;42.004;23.088;2024-03-02T09:43:38;19.58;;;12.13;;
39728;SDS011;25402;42.004;23.088;2024-03-02T09:46:06;21.25;;;11.68;;
39728;SDS011;25402;42.004;23.088;2024-03-02T09:48:36;18.60;;;11.70;;
39728;SDS011;25402;42.004;23.088;2024-03-02T09:51:04;19.02;;;11.30;;
39728;SDS011;25402;42.004;23.088;2024-03-02T09:53:32;19.75;;;11.88;;
39728;SDS011;25402;42.004;23.088;2024-03-02T09:55:59;20.92;;;11.70;;
39728;SDS011;25402;42.004;23.088;2024-03-02T09:58:27;16.33;;;11.32;;
39728;SDS011;25402;42.004;23.088;2024-03-02T10:00:54;19.05;;;10.65;;
39728;SDS011;25402;42.004;23.088;2024-03-02T10:03:21;18.10;;;10.80;;
39728;SDS011;25402;42.004;23.088;2024-03-02T10:05:51;17.85;;;11.30;;
39728;SDS011;25402;42.004;23.088;2024-03-02T10:08:18;18.10;;;10.60;;
39728;SDS011;25402;42.004;23.088;2024-03-02T10:10:45;20.35;;;12.07;;
39728;SDS011;25402;42.004;23.088;2024-03-02T10:13:12;21.58;;;12.70;;
39728;SDS011;25402;42.004;23.088;2024-03-02T10:15:41;19.65;;;11.30;;
39728;SDS011;25402;42.004;23.088;2024-03-02T10:18:09;21.48;;;11.90;;
39728;SDS011;25402;42.004;23.088;2024-03-02T10:20:37;17.83;;;11.10;;
39728;SDS011;25402;42.004;23.088;2024-03-02T10:23:13;17.45;;;11.15;;
39728;SDS011;25402;42.004;23.088;2024-03-02T10:25:41;24.73;;;12.45;;
39728;SDS011;25402;42.004;23.088;2024-03-02T10:28:10;24.08;;;12.43;;
39728;SDS011;25402;42.004;23.088;2024-03-02T10:30:37;21.02;;;11.60;;
39728;SDS011;25402;42.004;23.088;2024-03-02T10:33:05;17.65;;;11.73;;
39728;SDS011;25402;42.004;23.088;2024-03-02T10:35:32;25.15;;;12.40;;
39728;SDS011;25402;42.004;23.088;2024-03-02T10:38:01;22.20;;;11.68;;
39728;SDS011;25402;42.004;23.088;2024-03-02T10:40:32;21.33;;;12.05;;
39728;SDS011;25402;42.004;23.088;2024-03-02T10:42:59;17.98;;;11.63;;
39728;SDS011;25402;42.004;23.088;2024-03-02T10:45:28;19.63;;;10.68;;
39728;SDS011;25402;42.004;23.088;2024-03-02T10:47:56;18.00;;;11.48;;
39728;SDS011;25402;42.004;23.088;2024-03-02T10:50:24;19.30;;;10.90;;
39728;SDS011;25402;42.004;23.088;2024-03-02T10:52:51;17.15;;;10.35;;
39728;SDS011;25402;42.004;23.088;2024-03-02T10:55:18;16.60;;;10.50;;
39728;SDS011;25402;42.004;23.088;2024-03-02T10:57:49;18.17;;;10.10;;
39728;SDS011;25402;42.004;23.088;2024-03-02T11:00:19;16.02;;;10.13;;
39728;SDS011;25402;42.004;23.088;2024-03-02T11:02:50;16.02;;;10.10;;
39728;SDS011;25402;42.004;23.088;2024-03-02T11:05:24;18.77;;;9.93;;
39728;SDS011;25402;42.004;23.088;2024-03-02T11:10:23;15.60;;;9.57;;
39728;SDS011;25402;42.004;23.088;2024-03-02T11:12:56;15.45;;;8.70;;
39728;SDS011;25402;42.004;23.088;2024-03-02T11:15:27;19.33;;;9.35;;
39728;SDS011;25402;42.004;23.088;2024-03-02T11:17:54;16.08;;;9.45;;
39728;SDS011;25402;42.004;23.088;2024-03-02T11:20:23;15.73;;;9.30;;
39728;SDS011;25402;42.004;23.088;2024-03-02T11:22:51;15.82;;;9.35;;
39728;SDS011;25402;42.004;23.088;2024-03-02T11:25:22;13.02;;;8.05;;
39728;SDS011;25402;42.004;23.088;2024-03-02T11:28:01;14.05;;;9.05;;
39728;SDS011;25402;42.004;23.088;2024-03-02T11:33:24;13.82;;;8.23;;
39728;SDS011;25402;42.004;23.088;2024-03-02T11:35:56;11.57;;;7.95;;
39728;SDS011;25402;42.004;23.088;2024-03-02T11:38:27;11.65;;;7.63;;
39728;SDS011;25402;42.004;23.088;2024-03-02T11:40:56;12.02;;;8.10;;
39728;SDS011;25402;42.004;23.088;2024-03-02T11:43:24;14.85;;;8.05;;
39728;SDS011;25402;42.004;23.088;2024-03-02T11:45:57;13.43;;;8.50;;
39728;SDS011;25402;42.004;23.088;2024-03-02T11:48:25;14.50;;;7.88;;
39728;SDS011;25402;42.004;23.088;2024-03-02T11:50:52;12.90;;;7.63;;
39728;SDS011;25402;42.004;23.088;2024-03-02T11:53:20;11.95;;;7.13;;
39728;SDS011;25402;42.004;23.088;2024-03-02T11:55:47;12.55;;;7.15;;
39728;SDS011;25402;42.004;23.088;2024-03-02T11:58:16;13.07;;;7.25;;
39728;SDS011;25402;42.004;23.088;2024-03-02T12:00:47;11.07;;;6.63;;
39728;SDS011;25402;42.004;23.088;2024-03-02T12:03:16;9.80;;;5.82;;
39728;SDS011;25402;42.004;23.088;2024-03-02T12:05:43;9.35;;;5.25;;
39728;SDS011;25402;42.004;23.088;2024-03-02T12:08:14;7.97;;;5.28;;
39728;SDS011;25402;42.004;23.088;2024-03-02T12:10:42;7.75;;;5.57;;
39728;SDS011;25402;42.004;23.088;2024-03-02T12:13:09;9.65;;;6.30;;
39728;SDS011;25402;42.004;23.088;2024-03-02T12:15:37;9.13;;;5.88;;
39728;SDS011;25402;42.004;23.088;2024-03-02T12:18:07;10.00;;;6.03;;
39728;SDS011;25402;42.004;23.088;2024-03-02T12:20:35;8.40;;;5.13;;
39728;SDS011;25402;42.004;23.088;2024-03-02T12:23:02;10.02;;;5.50;;
39728;SDS011;25402;42.004;23.088;2024-03-02T12:25:31;8.75;;;5.35;;
39728;SDS011;25402;42.004;23.088;2024-03-02T12:27:59;6.95;;;5.07;;
39728;SDS011;25402;42.004;23.088;2024-03-02T12:30:29;8.70;;;5.55;;
39728;SDS011;25402;42.004;23.088;2024-03-02T12:32:57;8.15;;;4.72;;
39728;SDS011;25402;42.004;23.088;2024-03-02T12:35:26;6.93;;;4.90;;
39728;SDS011;25402;42.004;23.088;2024-03-02T12:37:53;10.48;;;5.15;;
39728;SDS011;25402;42.004;23.088;2024-03-02T12:40:21;6.95;;;4.95;;
39728;SDS011;25402;42.004;23.088;2024-03-02T12:42:48;8.07;;;4.70;;
39728;SDS011;25402;42.004;23.088;2024-03-02T12:45:16;6.90;;;4.90;;
39728;SDS011;25402;42.004;23.088;2024-03-02T12:47:49;11.83;;;5.73;;
39728;SDS011;25402;42.004;23.088;2024-03-02T12:50:17;7.68;;;4.90;;
39728;SDS011;25402;42.004;23.088;2024-03-02T12:52:51;9.80;;;4.70;;
39728;SDS011;25402;42.004;23.088;2024-03-02T12:55:20;7.50;;;4.72;;
39728;SDS011;25402;42.004;23.088;2024-03-02T12:57:49;6.72;;;4.90;;
39728;SDS011;25402;42.004;23.088;2024-03-02T13:00:17;8.25;;;5.20;;
39728;SDS011;25402;42.004;23.088;2024-03-02T13:02:45;9.95;;;5.80;;
39728;SDS011;25402;42.004;23.088;2024-03-02T13:05:13;7.68;;;4.90;;
39728;SDS011;25402;42.004;23.088;2024-03-02T13:07:40;6.78;;;4.80;;
39728;SDS011;25402;42.004;23.088;2024-03-02T13:10:09;5.53;;;4.38;;
39728;SDS011;25402;42.004;23.088;2024-03-02T13:12:36;9.05;;;3.92;;
39728;SDS011;25402;42.004;23.088;2024-03-02T13:15:04;6.00;;;4.18;;
39728;SDS011;25402;42.004;23.088;2024-03-02T13:17:33;6.47;;;4.32;;
39728;SDS011;25402;42.004;23.088;2024-03-02T13:20:01;7.40;;;4.25;;
39728;SDS011;25402;42.004;23.088;2024-03-02T13:22:29;10.32;;;4.45;;
39728;SDS011;25402;42.004;23.088;2024-03-02T13:24:56;12.27;;;4.28;;
39728;SDS011;25402;42.004;23.088;2024-03-02T13:27:26;7.40;;;4.32;;
39728;SDS011;25402;42.004;23.088;2024-03-02T13:29:54;8.57;;;4.10;;
39728;SDS011;25402;42.004;23.088;2024-03-02T13:32:21;7.53;;;4.78;;
39728;SDS011;25402;42.004;23.088;2024-03-02T13:34:49;8.57;;;4.80;;
39728;SDS011;25402;42.004;23.088;2024-03-02T13:37:16;8.98;;;4.53;;
39728;SDS011;25402;42.004;23.088;2024-03-02T13:39:43;9.95;;;4.28;;
39728;SDS011;25402;42.004;23.088;2024-03-02T13:42:11;9.95;;;4.35;;
39728;SDS011;25402;42.004;23.088;2024-03-02T13:44:42;5.95;;;4.03;;
39728;SDS011;25402;42.004;23.088;2024-03-02T13:47:12;9.73;;;3.88;;
39728;SDS011;25402;42.004;23.088;2024-03-02T13:49:39;7.43;;;3.70;;
39728;SDS011;25402;42.004;23.088;2024-03-02T13:52:09;7.78;;;3.67;;
39728;SDS011;25402;42.004;23.088;2024-03-02T13:54:38;8.48;;;3.53;;
39728;SDS011;25402;42.004;23.088;2024-03-02T13:57:07;9.50;;;4.00;;
39728;SDS011;25402;42.004;23.088;2024-03-02T13:59:35;4.80;;;3.30;;
39728;SDS011;25402;42.004;23.088;2024-03-02T14:02:04;5.57;;;3.35;;
39728;SDS011;25402;42.004;23.088;2024-03-02T14:04:32;9.77;;;3.70;;
39728;SDS011;25402;42.004;23.088;2024-03-02T14:06:59;5.82;;;3.25;;
39728;SDS011;25402;42.004;23.088;2024-03-02T14:09:27;7.65;;;3.35;;
39728;SDS011;25402;42.004;23.088;2024-03-02T14:11:54;5.85;;;3.47;;
39728;SDS011;25402;42.004;23.088;2024-03-02T14:14:22;5.40;;;3.38;;
39728;SDS011;25402;42.004;23.088;2024-03-02T14:16:49;9.55;;;3.33;;
39728;SDS011;25402;42.004;23.088;2024-03-02T14:19:18;6.50;;;3.13;;
39728;SDS011;25402;42.004;23.088;2024-03-02T14:21:47;8.88;;;3.97;;
39728;SDS011;25402;42.004;23.088;2024-03-02T14:24:14;7.38;;;3.75;;
39728;SDS011;25402;42.004;23.088;2024-03-02T14:26:41;6.05;;;3.58;;